Time;durP1;ratioP1;P1;durP2;ratioP2;P2;SDS_P1;SDS_P2;PMS_P1;PMS_P2;Temp;Humidity;BMP_temperature;BMP_pressure;BME280_temperature;BME280_humidity;BME280_pressure;Samples;Min_cycle;Max_cycle;Signal;HPM_P1;HPM_P2
2022/12/03 00:00:37;;;;;;;6.20;4.60;;;;;;;18.24;33.30;102148.63;16134881;19;130157;-46
2022/12/03 00:05:59;;;;;;;6.15;4.63;;;;;;;18.22;32.86;102149.88;16132580;19;129535;-46
2022/12/03 00:11:21;;;;;;;6.03;4.85;;;;;;;18.18;32.84;102140.31;16131630;19;129612;-46
2022/12/03 00:16:42;;;;;;;6.88;4.43;;;;;;;18.14;32.97;102142.66;16130460;19;130200;-46
2022/12/03 00:22:04;;;;;;;5.22;4.43;;;;;;;18.09;32.92;102134.13;16127266;19;129486;-47
2022/12/03 00:27:26;;;;;;;6.22;4.50;;;;;;;18.06;32.76;102131.78;16130954;19;129494;-47
2022/12/03 00:32:47;;;;;;;4.40;3.83;;;;;;;18.03;32.98;102130.28;16129699;19;129386;-46
2022/12/03 00:38:09;;;;;;;5.53;4.50;;;;;;;17.99;33.21;102124.34;16129568;19;129513;-47
2022/12/03 00:43:31;;;;;;;4.72;4.10;;;;;;;17.98;33.11;102121.75;16131572;19;131330;-46
2022/12/03 00:48:52;;;;;;;5.43;4.53;;;;;;;17.96;32.99;102121.16;16129514;19;130123;-38
2022/12/03 00:54:14;;;;;;;5.50;4.55;;;;;;;17.90;32.98;102125.63;16128856;19;129987;-42
2022/12/03 00:59:36;;;;;;;4.60;4.07;;;;;;;17.88;33.01;102121.34;16129345;19;134859;-40
2022/12/03 01:04:58;;;;;;;4.78;4.13;;;;;;;17.83;32.79;102124.75;16127123;19;129857;-37
2022/12/03 01:10:20;;;;;;;5.40;4.47;;;;;;;17.79;32.78;102120.69;16124733;19;129536;-38
2022/12/03 01:15:41;;;;;;;5.20;4.50;;;;;;;17.78;33.21;102135.63;16124999;19;129688;-38
2022/12/03 01:21:03;;;;;;;5.18;4.30;;;;;;;17.76;32.67;102127.50;16125076;19;129498;-43
2022/12/03 01:26:25;;;;;;;4.95;3.97;;;;;;;17.73;33.05;102122.38;16125597;19;130391;-45
2022/12/03 01:37:27;;;;;;;4.63;4.13;;;;;;;17.69;32.77;102121.13;16125618;19;129730;-43
2022/12/03 01:42:49;;;;;;;4.55;3.60;;;;;;;17.67;33.14;102112.16;16125787;19;130324;-43
2022/12/03 01:48:15;;;;;;;4.45;4.00;;;;;;;17.65;32.85;102109.63;16124380;19;133214;-43
2022/12/03 01:53:37;;;;;;;4.75;4.25;;;;;;;17.62;33.11;102106.41;16124661;19;129476;-48
2022/12/03 01:58:58;;;;;;;5.93;4.38;;;;;;;17.61;33.02;102110.22;16124217;19;130077;-43
2022/12/03 02:04:21;;;;;;;4.72;3.90;;;;;;;17.59;33.02;102109.63;16122562;19;129543;-38
2022/12/03 02:09:43;;;;;;;4.75;4.07;;;;;;;17.57;32.89;102103.44;16122927;19;129686;-38
2022/12/03 02:15:07;;;;;;;4.60;3.95;;;;;;;17.53;32.85;102103.81;16125153;19;129439;-37
2022/12/03 02:20:31;;;;;;;4.80;4.25;;;;;;;17.52;33.24;102102.09;16122984;19;130558;-37
2022/12/03 02:25:53;;;;;;;5.30;4.07;;;;;;;17.50;33.26;102109.75;16124838;19;129438;-37
2022/12/03 02:31:15;;;;;;;5.50;4.13;;;;;;;17.48;33.30;102099.97;16124683;19;129599;-37
2022/12/03 02:36:38;;;;;;;5.50;4.03;;;;;;;17.46;33.00;102100.19;16123522;19;129311;-37
2022/12/03 02:47:44;;;;;;;4.03;3.55;;;;;;;17.42;33.27;102084.19;16123755;19;130124;-41
2022/12/03 02:53:12;;;;;;;4.35;3.80;;;;;;;17.40;33.21;102095.47;16122124;19;129587;-37
2022/12/03 02:58:34;;;;;;;5.80;4.68;;;;;;;17.38;33.35;102097.59;16123926;19;129501;-37
2022/12/03 03:03:57;;;;;;;5.13;4.10;;;;;;;17.36;33.33;102085.88;16122500;19;132835;-37
2022/12/03 03:09:19;;;;;;;4.88;3.72;;;;;;;17.34;33.01;102091.63;16120849;19;129676;-37
2022/12/03 03:14:41;;;;;;;5.38;4.03;;;;;;;17.33;33.12;102091.88;16121207;19;129304;-37
2022/12/03 03:20:05;;;;;;;5.22;4.07;;;;;;;17.32;33.16;102087.38;16119743;19;129355;-37
2022/12/03 03:25:27;;;;;;;4.88;4.18;;;;;;;17.31;33.28;102082.91;16121586;19;130771;-37
2022/12/03 03:30:49;;;;;;;4.07;3.47;;;;;;;17.29;33.29;102085.03;16120836;19;129295;-37
2022/12/03 03:36:11;;;;;;;4.45;3.53;;;;;;;17.29;33.39;102076.72;16136148;19;134454;-37
2022/12/03 03:41:34;;;;;;;4.25;3.80;;;;;;;17.26;33.41;102080.78;16137615;19;129605;-38
2022/12/03 03:46:56;;;;;;;5.20;3.85;;;;;;;17.23;33.04;102073.72;16135835;19;134152;-37
2022/12/03 03:52:19;;;;;;;3.65;3.25;;;;;;;17.22;33.39;102069.28;16132485;19;130532;-37
2022/12/03 03:57:43;;;;;;;5.10;3.83;;;;;;;17.21;33.41;102067.59;16133820;19;129689;-38
2022/12/03 04:03:05;;;;;;;4.70;3.75;;;;;;;17.18;33.42;102073.53;16132144;19;130235;-38
2022/12/03 04:08:27;;;;;;;4.38;3.65;;;;;;;17.17;33.51;102060.75;16130103;19;129499;-37
2022/12/03 04:13:49;;;;;;;4.72;3.70;;;;;;;17.15;33.54;102068.41;16130580;19;129791;-37
2022/12/03 04:19:11;;;;;;;4.47;3.50;;;;;;;17.14;33.29;102063.09;16129903;19;130214;-37
2022/12/03 04:24:32;;;;;;;4.35;3.55;;;;;;;17.13;33.56;102058.63;16129369;19;129845;-38
2022/12/03 04:29:54;;;;;;;5.43;3.78;;;;;;;17.12;33.30;102065.22;16130896;19;129409;-37
2022/12/03 04:41:05;;;;;;;4.10;3.70;;;;;;;17.09;33.39;102052.66;16129707;19;133024;-37
2022/12/03 04:46:26;;;;;;;5.47;3.88;;;;;;;17.08;33.54;102050.94;16131419;19;130954;-38
2022/12/03 04:51:48;;;;;;;4.55;3.67;;;;;;;17.07;33.72;102049.25;16126145;19;129951;-37
2022/12/03 04:57:11;;;;;;;5.40;3.75;;;;;;;17.06;33.57;102053.91;16128953;19;129295;-37
2022/12/03 05:02:33;;;;;;;5.25;4.30;;;;;;;17.03;33.64;102039.66;16130054;19;130120;-37
2022/12/03 05:07:54;;;;;;;4.97;3.75;;;;;;;17.03;33.62;102039.66;16128494;19;129243;-37
2022/12/03 05:13:16;;;;;;;4.47;3.83;;;;;;;17.00;33.59;102043.69;16126848;19;130018;-37
2022/12/03 05:18:38;;;;;;;5.78;4.18;;;;;;;17.00;33.81;102040.06;16126633;19;131558;-37
2022/12/03 05:24:00;;;;;;;5.00;3.75;;;;;;;16.99;33.65;102033.69;16126736;19;130255;-37
2022/12/03 05:29:22;;;;;;;6.40;4.38;;;;;;;16.97;33.34;102032.22;16123443;19;129802;-37
2022/12/03 05:34:43;;;;;;;6.07;4.63;;;;;;;16.95;33.31;102029.63;16125185;19;129887;-37
2022/12/03 05:40:06;;;;;;;5.72;4.40;;;;;;;16.94;33.55;102038.97;16122348;19;129462;-37
2022/12/03 05:45:36;;;;;;;5.30;3.85;;;;;;;16.92;33.28;102024.53;16125819;19;129297;-37
2022/12/03 05:50:58;;;;;;;6.55;4.65;;;;;;;16.91;33.77;102028.38;16124635;19;129079;-36
2022/12/03 05:56:20;;;;;;;5.00;4.18;;;;;;;16.90;33.28;102026.66;16121205;19;129750;-37
2022/12/03 06:01:41;;;;;;;5.65;4.47;;;;;;;16.87;33.68;102011.31;16125723;19;130394;-37
2022/12/03 06:07:03;;;;;;;4.85;3.97;;;;;;;16.86;33.45;102020.66;16123563;19;129818;-37
2022/12/03 06:12:30;;;;;;;7.22;5.10;;;;;;;16.84;33.62;102016.41;16125077;19;129981;-37
2022/12/03 06:17:51;;;;;;;5.10;4.32;;;;;;;16.81;33.25;102014.94;16124520;19;130279;-37
2022/12/03 06:23:13;;;;;;;5.20;4.20;;;;;;;16.81;33.23;102014.94;16124216;19;129414;-37
2022/12/03 06:28:35;;;;;;;6.35;4.88;;;;;;;16.79;33.39;102011.50;16122074;19;129709;-37
2022/12/03 06:33:57;;;;;;;5.18;4.20;;;;;;;16.80;33.44;102007.69;16123652;19;129604;-37
2022/12/03 06:39:18;;;;;;;4.38;3.50;;;;;;;16.95;33.46;102017.75;16120395;19;130385;-37
2022/12/03 06:44:40;;;;;;;5.32;3.60;;;;;;;17.41;32.90;102019.72;16121210;19;129431;-37
2022/12/03 06:50:02;;;;;;;4.75;3.75;;;;;;;18.06;32.26;102016.34;16121661;19;130319;-37
2022/12/03 06:55:24;;;;;;;3.10;2.80;;;;;;;18.68;31.73;102018.72;16120157;19;129820;-37
2022/12/03 07:00:46;;;;;;;3.72;2.95;;;;;;;19.21;31.18;102019.50;16120494;19;131747;-37
2022/12/03 07:06:07;;;;;;;3.88;2.97;;;;;;;19.59;30.74;102015.81;16118031;19;130736;-37
2022/12/03 07:11:38;;;;;;;4.00;3.42;;;;;;;19.78;30.84;102010.34;16120800;19;130772;-37
2022/12/03 07:17:00;;;;;;;3.78;3.20;;;;;;;19.83;30.56;102011.34;16119552;19;129848;-41
2022/12/03 07:22:22;;;;;;;3.85;2.95;;;;;;;19.72;30.67;102009.31;16117343;19;129788;-37
2022/12/03 07:27:43;;;;;;;4.70;3.35;;;;;;;19.56;30.45;102010.75;16118549;19;129891;-37
2022/12/03 07:33:05;;;;;;;5.20;3.60;;;;;;;19.38;30.74;102004.03;16117384;19;129509;-37
2022/12/03 07:38:27;;;;;;;3.97;3.17;;;;;;;19.20;31.13;101992.84;16119562;19;128990;-37
2022/12/03 07:43:49;;;;;;;4.10;3.53;;;;;;;19.03;31.37;102003.59;16118233;19;129886;-37
2022/12/03 07:49:13;;;;;;;4.10;3.70;;;;;;;18.84;31.39;102003.50;16114733;19;129502;-37
2022/12/03 07:54:35;;;;;;;4.60;3.60;;;;;;;18.70;31.61;102001.88;16119401;19;129007;-38
2022/12/03 07:59:57;;;;;;;4.15;3.50;;;;;;;18.55;31.86;102003.00;16117676;19;129886;-37
2022/12/03 08:05:19;;;;;;;5.47;3.85;;;;;;;18.43;31.55;102002.84;16112164;19;130628;-37
2022/12/03 08:10:40;;;;;;;4.75;3.42;;;;;;;18.48;31.65;102009.63;16114754;19;130515;-39
2022/12/03 08:16:14;;;;;;;4.20;3.53;;;;;;;18.81;31.55;102003.09;16115054;19;129990;-37
2022/12/03 08:21:37;;;;;;;4.30;3.10;;;;;;;19.29;31.34;102015.63;16131581;19;129640;-37
2022/12/03 08:26:59;;;;;;;4.93;3.47;;;;;;;19.80;30.67;102011.78;16134249;19;129512;-37
2022/12/03 08:32:21;;;;;;;7.32;3.75;;;;;;;20.31;30.48;102011.75;16130840;19;129919;-37
2022/12/03 08:37:43;;;;;;;8.95;3.78;;;;;;;20.57;30.04;102007.78;16129985;19;129515;-37
2022/12/03 08:43:19;;;;;;;8.75;4.28;;;;;;;20.63;29.48;102003.22;16130152;19;129923;-37
2022/12/03 08:48:43;;;;;;;9.77;3.95;;;;;;;20.51;29.87;102010.63;16130967;19;129602;-37
2022/12/03 08:54:18;;;;;;;11.85;5.75;;;;;;;20.34;29.88;102015.97;16127349;19;129370;-37
2022/12/03 08:59:40;;;;;;;8.35;5.18;;;;;;;20.12;30.08;102013.66;16129090;19;129641;-37
2022/12/03 09:05:15;;;;;;;6.82;5.05;;;;;;;19.90;30.02;102016.84;16128996;19;131379;-37
2022/12/03 09:10:37;;;;;;;10.90;5.18;;;;;;;19.66;30.28;102010.22;16129479;19;129677;-37
2022/12/03 09:15:58;;;;;;;8.77;5.28;;;;;;;19.45;30.66;102015.09;16127820;19;129628;-38
2022/12/03 09:21:20;;;;;;;6.72;5.13;;;;;;;19.27;31.13;102006.66;16124716;19;130334;-37
2022/12/03 09:26:42;;;;;;;7.80;5.22;;;;;;;19.09;31.15;102008.28;16126234;19;130207;-40
2022/12/03 09:32:03;;;;;;;9.55;5.75;;;;;;;18.94;31.58;101997.50;16123574;19;130132;-39
2022/12/03 09:37:25;;;;;;;7.40;5.50;;;;;;;18.82;31.55;101996.50;16124445;19;129338;-40
2022/12/03 09:42:47;;;;;;;7.90;5.40;;;;;;;18.71;32.09;101998.88;16127829;19;129163;-40
2022/12/03 09:48:11;;;;;;;9.52;5.63;;;;;;;18.64;31.76;101992.53;16123816;19;129692;-40
2022/12/03 09:53:33;;;;;;;8.93;5.97;;;;;;;18.56;32.41;101987.25;16129325;19;130678;-41
2022/12/03 09:59:01;;;;;;;19.95;6.13;;;;;;;18.50;32.50;101990.88;16123967;19;129715;-41
2022/12/03 10:04:23;;;;;;;8.68;5.45;;;;;;;18.52;32.32;101989.59;16122532;19;130284;-42
2022/12/03 10:09:45;;;;;;;8.75;5.95;;;;;;;18.60;32.16;101981.03;16121002;19;129656;-40
2022/12/03 10:15:12;;;;;;;8.25;5.65;;;;;;;18.70;31.89;101963.94;16120268;19;129347;-40
2022/12/03 10:20:34;;;;;;;11.25;6.35;;;;;;;18.76;32.06;101967.75;16123931;19;129888;-41
2022/12/03 10:25:59;;;;;;;13.30;6.55;;;;;;;18.81;31.42;101959.59;16122059;19;132777;-40
2022/12/03 10:31:34;;;;;;;17.80;7.15;;;;;;;18.85;31.56;101954.44;16120876;19;129852;-42
2022/12/03 10:37:13;;;;;;;12.18;7.47;;;;;;;18.79;31.53;101950.63;16117039;19;135276;-42
2022/12/03 10:42:38;;;;;;;13.05;8.18;;;;;;;18.70;31.62;101930.66;16122189;19;131458;-41
2022/12/03 10:48:10;;;;;;;15.67;7.23;;;;;;;18.62;31.92;101928.13;16125380;19;129214;-40
2022/12/03 10:53:34;;;;;;;13.10;7.40;;;;;;;18.54;31.88;101931.19;16122934;19;129461;-41
2022/12/03 10:58:56;;;;;;;9.68;6.28;;;;;;;18.57;31.63;101919.66;16122768;19;130564;-40
2022/12/03 11:04:27;;;;;;;11.10;6.90;;;;;;;18.69;31.53;101909.56;16120764;19;129312;-43
2022/12/03 11:09:53;;;;;;;15.13;8.52;;;;;;;18.82;31.07;101913.31;16118755;19;131516;-40
2022/12/03 11:15:15;;;;;;;14.02;7.18;;;;;;;18.98;31.24;101903.59;16116184;19;130255;-42
2022/12/03 11:20:46;;;;;;;11.98;7.28;;;;;;;19.22;30.96;101901.94;16118136;19;129628;-41
2022/12/03 11:26:07;;;;;;;13.77;6.65;;;;;;;19.45;30.81;101897.66;16117652;19;129354;-39
2022/12/03 11:31:39;;;;;;;;;;;;;;;19.82;30.33;101895.81;16119343;19;129121;-42
2022/12/03 11:37:10;;;;;;;9.35;6.20;;;;;;;20.16;29.44;101892.66;16118444;19;129563;-47
2022/12/03 11:42:39;;;;;;;15.05;7.00;;;;;;;20.27;28.87;101886.31;16118948;19;129582;-42
2022/12/03 11:48:13;;;;;;;12.15;6.03;;;;;;;20.28;29.42;101870.47;16119014;19;129957;-41
2022/12/03 11:53:35;;;;;;;10.68;6.53;;;;;;;20.26;29.50;101865.16;16124780;19;130379;-50
2022/12/03 11:59:03;;;;;;;9.75;6.25;;;;;;;20.18;29.54;101859.94;16132194;19;130024;-47
2022/12/03 12:04:28;;;;;;;9.77;5.63;;;;;;;20.06;29.85;101856.25;16129514;19;131434;-49
2022/12/03 12:09:54;;;;;;;10.68;6.10;;;;;;;19.90;29.60;101855.78;16131277;19;130743;-46
2022/12/03 12:15:52;;;;;;;10.00;5.78;;;;;;;19.73;29.95;101843.56;16129932;19;129396;-51
2022/12/03 12:21:42;;;;;;;9.55;6.20;;;;;;;19.55;30.00;101839.72;16118159;19;129613;-49
2022/12/03 12:27:07;;;;;;;7.63;5.75;;;;;;;19.37;30.71;101832.25;16121871;19;129516;-51
2022/12/03 12:32:33;;;;;;;7.32;5.32;;;;;;;19.24;31.03;101819.34;16123386;19;129865;-51
2022/12/03 12:38:10;;;;;;;12.43;5.88;;;;;;;19.13;30.96;101812.59;16122126;19;129194;-50
2022/12/03 12:43:33;;;;;;;8.77;6.35;;;;;;;18.99;31.12;101809.09;16122528;19;129401;-49
2022/12/03 12:48:55;;;;;;;12.43;6.40;;;;;;;18.88;30.98;101804.28;16121948;19;130823;-42
2022/12/03 12:54:20;;;;;;;9.63;5.20;;;;;;;18.80;31.15;101793.47;16124637;19;130379;-43
2022/12/03 12:59:42;;;;;;;8.68;5.20;;;;;;;18.73;31.79;101790.75;16127484;19;129402;-46
2022/12/03 13:05:04;;;;;;;11.55;6.20;;;;;;;18.75;31.53;101788.63;16126754;19;129853;-41
2022/12/03 13:10:34;;;;;;;9.02;4.57;;;;;;;18.88;31.25;101785.75;16130991;19;130712;-40
2022/12/03 13:16:24;;;;;;;11.70;5.10;;;;;;;19.11;31.00;101786.16;16134254;19;133869;-40
2022/12/03 13:21:46;;;;;;;10.68;5.47;;;;;;;19.28;31.00;101784.53;16127717;19;129156;-42
2022/12/03 13:27:08;;;;;;;8.75;4.78;;;;;;;19.37;30.62;101780.34;16128057;19;129010;-41
2022/12/03 13:32:36;;;;;;;12.73;4.97;;;;;;;19.39;30.58;101777.34;16129417;19;129927;-39
2022/12/03 13:37:58;;;;;;;7.65;4.82;;;;;;;19.35;30.62;101784.44;16126789;19;130966;-41
2022/12/03 13:43:19;;;;;;;8.43;5.10;;;;;;;19.27;30.99;101780.03;16130289;19;129662;-40
2022/12/03 13:48:43;;;;;;;7.20;4.88;;;;;;;19.17;30.88;101780.53;16126595;19;129220;-40
2022/12/03 13:54:11;;;;;;;10.05;5.25;;;;;;;19.07;30.65;101764.44;16125693;19;129954;-41
2022/12/03 13:59:36;;;;;;;8.68;4.53;;;;;;;18.97;31.25;101766.88;16126781;19;130407;-40
2022/12/03 14:04:58;;;;;;;6.38;5.13;;;;;;;18.85;30.99;101771.47;16125138;19;129875;-41
2022/12/03 14:10:21;;;;;;;6.50;4.25;;;;;;;18.83;30.83;101757.84;16120534;19;129961;-41
2022/12/03 14:15:42;;;;;;;9.63;5.43;;;;;;;18.94;30.78;101759.03;16122733;19;129358;-39
2022/12/03 14:21:04;;;;;;;7.60;5.22;;;;;;;19.13;30.30;101750.72;16122138;19;129764;-40
2022/12/03 14:26:26;;;;;;;6.55;4.50;;;;;;;19.32;30.46;101754.38;16124245;19;130922;-40
2022/12/03 14:31:48;;;;;;;6.22;4.20;;;;;;;19.51;30.20;101744.97;16123237;19;129376;-40
2022/12/03 14:37:10;;;;;;;7.43;4.80;;;;;;;19.69;29.98;101759.91;16122977;19;129661;-40
2022/12/03 14:42:31;;;;;;;7.45;4.40;;;;;;;19.83;29.50;101755.03;16122873;19;130401;-40
2022/12/03 14:47:53;;;;;;;6.43;4.78;;;;;;;19.94;29.77;101759.78;16121485;19;130568;-41
2022/12/03 14:53:15;;;;;;;5.88;4.95;;;;;;;20.03;29.80;101760.34;16117754;19;129580;-41
2022/12/03 14:58:37;;;;;;;6.75;5.03;;;;;;;20.06;29.56;101759.03;16119615;19;129914;-40
2022/12/03 15:03:59;;;;;;;7.50;4.40;;;;;;;19.99;29.49;101754.41;16118425;19;130842;-40
2022/12/03 15:09:21;;;;;;;7.10;5.22;;;;;;;19.92;29.70;101758.31;16122446;19;129718;-40
2022/12/03 15:14:42;;;;;;;5.82;4.97;;;;;;;19.79;29.89;101759.38;16119302;19;130353;-40
2022/12/03 15:20:05;;;;;;;9.15;5.47;;;;;;;19.64;29.99;101756.97;16117865;19;129658;-48
2022/12/03 15:25:27;;;;;;;6.03;5.00;;;;;;;19.49;30.14;101757.38;16116231;19;129729;-49
2022/12/03 15:30:49;;;;;;;9.35;6.10;;;;;;;19.32;30.26;101752.44;16148287;19;129964;-49
2022/12/03 15:36:11;;;;;;;6.20;5.07;;;;;;;19.20;30.25;101752.34;16148784;19;133947;-48
2022/12/03 15:41:33;;;;;;;8.63;5.97;;;;;;;19.08;30.23;101763.34;16148898;19;130625;-47
2022/12/03 15:46:54;;;;;;;8.45;5.70;;;;;;;18.99;30.46;101761.94;16148795;19;129390;-47
2022/12/03 15:52:17;;;;;;;10.70;6.18;;;;;;;18.94;30.38;101752.63;16146139;19;130543;-47
2022/12/03 15:57:39;;;;;;;8.38;6.57;;;;;;;18.90;30.57;101735.59;16147623;19;130136;-49
2022/12/03 16:03:00;;;;;;;11.27;6.57;;;;;;;18.88;30.39;101744.16;16146424;19;129871;-49
2022/12/03 16:08:22;;;;;;;10.95;6.72;;;;;;;18.88;30.50;101746.91;16148470;19;129509;-42
2022/12/03 16:13:44;;;;;;;8.52;5.85;;;;;;;18.89;30.20;101742.22;16148139;19;129287;-45
2022/12/03 16:19:06;;;;;;;8.30;6.40;;;;;;;18.89;30.00;101747.75;16149444;19;132625;-41
2022/12/03 16:24:28;;;;;;;9.55;6.90;;;;;;;18.89;30.01;101744.97;16146766;19;130393;-49
2022/12/03 16:29:49;;;;;;;8.63;6.53;;;;;;;18.90;30.21;101747.50;16148049;19;128874;-48
2022/12/03 16:35:11;;;;;;;7.97;5.90;;;;;;;18.92;30.24;101744.53;16146571;19;129358;-43
2022/12/03 16:40:33;;;;;;;9.07;6.55;;;;;;;18.92;30.14;101744.53;16135719;19;129664;-41
2022/12/03 16:51:20;;;;;;;9.23;6.50;;;;;;;18.89;29.89;101733.91;16131872;19;129393;-40
2022/12/03 16:56:42;;;;;;;8.48;6.38;;;;;;;18.86;30.35;101735.22;16129991;19;129306;-43
2022/12/03 17:02:04;;;;;;;10.20;6.88;;;;;;;18.85;30.11;101738.19;16130857;19;129300;-40
2022/12/03 17:07:25;;;;;;;8.80;6.55;;;;;;;18.85;30.29;101732.66;16131184;19;129527;-40
2022/12/03 17:12:47;;;;;;;8.95;6.93;;;;;;;18.98;30.04;101726.97;16129729;19;129356;-41
2022/12/03 17:18:29;;;;;;;14.70;9.05;;;;;;;19.19;29.78;101728.44;16133077;19;130661;-40
2022/12/03 17:23:51;;;;;;;12.93;8.13;;;;;;;19.45;29.50;101725.63;16131370;19;131106;-41
2022/12/03 17:29:13;;;;;;;13.70;8.98;;;;;;;19.67;29.14;101712.97;16128152;19;128821;-41
2022/12/03 17:34:34;;;;;;;15.63;9.05;;;;;;;19.83;29.05;101705.91;16121536;19;130009;-41
2022/12/03 17:39:56;;;;;;;12.68;8.65;;;;;;;19.91;28.87;101713.06;16123384;19;134336;-41
2022/12/03 17:45:18;;;;;;;13.13;8.80;;;;;;;19.92;28.51;101703.66;16123635;19;130075;-41
2022/12/03 17:50:39;;;;;;;12.68;8.40;;;;;;;19.87;29.01;101714.59;16123838;19;129543;-43
2022/12/03 17:56:01;;;;;;;13.55;8.45;;;;;;;19.82;29.12;101711.66;16128486;19;129479;-41
2022/12/03 18:01:23;;;;;;;12.20;7.57;;;;;;;19.74;28.72;101712.00;16126784;19;130625;-43
2022/12/03 18:06:45;;;;;;;19.38;7.85;;;;;;;19.63;29.20;101708.13;16124883;19;130223;-42
2022/12/03 18:12:07;;;;;;;17.58;8.45;;;;;;;19.55;29.48;101709.28;16120022;19;130935;-45
2022/12/03 18:17:28;;;;;;;24.10;9.43;;;;;;;19.49;29.46;101716.63;16121712;19;129668;-42
2022/12/03 18:22:50;;;;;;;17.25;8.43;;;;;;;19.45;29.76;101708.97;16123956;19;129723;-42
2022/12/03 18:28:12;;;;;;;16.63;8.20;;;;;;;19.38;29.70;101698.81;16122570;19;129217;-43
2022/12/03 18:33:33;;;;;;;22.27;8.63;;;;;;;19.32;30.13;101707.22;16124068;19;129557;-47
2022/12/03 18:38:57;;;;;;;20.40;8.07;;;;;;;19.40;29.74;101714.38;16123362;19;129369;-46
2022/12/03 18:44:19;;;;;;;11.52;7.43;;;;;;;19.54;29.90;101704.81;16121586;19;129458;-47
2022/12/03 18:49:41;;;;;;;14.15;7.70;;;;;;;19.73;29.92;101696.44;16122206;19;129743;-50
2022/12/03 18:55:04;;;;;;;16.42;7.70;;;;;;;19.88;29.59;101691.31;16121680;19;130654;-49
2022/12/03 19:00:26;;;;;;;13.32;7.70;;;;;;;19.98;29.68;101691.56;16117838;19;130451;-49
2022/12/03 19:05:48;;;;;;;25.77;7.90;;;;;;;20.05;29.68;101694.28;16122944;19;129495;-43
2022/12/03 19:11:12;;;;;;;28.10;8.45;;;;;;;20.15;29.85;101677.06;16120917;19;129526;-45
2022/12/03 19:16:34;;;;;;;31.60;7.15;;;;;;;20.29;30.04;101674.88;16122318;19;130107;-47
2022/12/03 19:21:56;;;;;;;22.83;8.43;;;;;;;20.55;29.77;101678.28;16120110;19;129940;-46
2022/12/03 19:27:18;;;;;;;26.83;7.75;;;;;;;20.98;29.80;101679.03;16114727;19;131120;-44
2022/12/03 19:32:40;;;;;;;25.05;8.25;;;;;;;21.31;29.85;101677.50;16116467;19;129521;-43
2022/12/03 19:38:01;;;;;;;21.00;6.95;;;;;;;21.49;29.61;101674.56;16116808;19;130841;-45
2022/12/03 19:43:23;;;;;;;16.88;7.10;;;;;;;21.65;29.69;101684.06;16115034;19;129606;-45
2022/12/03 19:48:45;;;;;;;29.15;7.50;;;;;;;21.71;29.60;101679.44;16116157;19;130177;-46
2022/12/03 19:54:10;;;;;;;17.52;6.90;;;;;;;21.72;29.76;101670.00;16119849;19;129650;-43
2022/12/03 19:59:31;;;;;;;16.17;6.97;;;;;;;21.68;29.83;101674.38;16093764;19;130032;-45
2022/12/03 20:04:53;;;;;;;17.25;7.78;;;;;;;21.56;30.06;101680.00;16117012;19;130815;-43
2022/12/03 20:10:15;;;;;;;28.20;8.98;;;;;;;21.39;29.72;101676.25;16115382;19;129571;-44
2022/12/03 20:15:37;;;;;;;18.42;8.18;;;;;;;21.18;29.96;101679.47;16127990;19;129435;-44
2022/12/03 20:20:59;;;;;;;18.45;8.05;;;;;;;20.99;30.12;101667.66;16134409;19;129722;-46
2022/12/03 20:26:22;;;;;;;20.80;7.72;;;;;;;20.81;30.31;101676.16;16129868;19;130658;-48
2022/12/03 20:31:44;;;;;;;20.98;8.90;;;;;;;20.66;30.90;101669.09;16130480;19;130077;-44
2022/12/03 20:37:06;;;;;;;20.25;8.15;;;;;;;20.63;30.54;101668.75;16128336;19;131299;-46
2022/12/03 20:42:27;;;;;;;17.55;7.03;;;;;;;20.68;30.84;101666.94;16131734;19;129506;-45
2022/12/03 20:47:49;;;;;;;13.73;7.63;;;;;;;20.74;31.01;101660.38;16130734;19;129463;-44
2022/12/03 20:53:11;;;;;;;12.82;6.95;;;;;;;20.78;30.79;101658.03;16127440;19;134326;-46
2022/12/03 20:58:47;;;;;;;17.47;7.40;;;;;;;20.81;30.79;101649.16;16129064;19;130372;-45
2022/12/03 21:04:12;;;;;;;12.85;7.20;;;;;;;20.83;31.04;101640.59;16127648;19;129063;-45
2022/12/03 21:09:33;;;;;;;22.55;7.63;;;;;;;20.80;30.68;101647.47;16126021;19;129808;-43
2022/12/03 21:14:55;;;;;;;18.45;8.25;;;;;;;20.75;31.20;101644.56;16124830;19;129137;-42
2022/12/03 21:20:18;;;;;;;21.92;8.02;;;;;;;20.66;31.23;101649.66;16126156;19;129971;-45
2022/12/03 21:25:41;;;;;;;15.67;7.80;;;;;;;20.56;31.52;101650.25;16124841;19;129230;-43
2022/12/03 21:31:06;;;;;;;17.63;8.13;;;;;;;20.47;31.60;101648.91;16125359;19;129528;-44
2022/12/03 21:36:28;;;;;;;15.37;8.07;;;;;;;20.36;31.98;101641.44;16124710;19;129495;-47
2022/12/03 21:41:49;;;;;;;17.35;7.57;;;;;;;20.26;31.56;101647.56;16126401;19;130223;-43
2022/12/03 21:47:31;;;;;;;13.15;7.80;;;;;;;20.16;31.80;101644.53;16126512;19;129853;-45
2022/12/03 21:52:58;;;;;;;11.65;7.03;;;;;;;20.07;32.36;101644.91;16125332;19;130040;-44
2022/12/03 21:58:19;;;;;;;16.70;7.88;;;;;;;19.98;32.01;101647.13;16124213;19;130678;-44
2022/12/03 22:03:41;;;;;;;13.68;7.18;;;;;;;19.90;32.76;101652.19;16123331;19;128877;-43
2022/12/03 22:09:03;;;;;;;11.45;7.65;;;;;;;19.83;32.52;101655.94;16121698;19;129405;-46
2022/12/03 22:14:26;;;;;;;11.02;6.63;;;;;;;19.76;32.48;101654.31;16122136;19;130420;-45
2022/12/03 22:19:48;;;;;;;20.60;7.90;;;;;;;19.68;32.50;101656.38;16123513;19;130142;-44
2022/12/03 22:25:09;;;;;;;13.15;7.90;;;;;;;19.61;32.76;101658.38;16122017;19;128937;-43
2022/12/03 22:30:31;;;;;;;13.52;7.38;;;;;;;19.54;32.67;101654.84;16122357;19;130962;-46
2022/12/03 22:35:57;;;;;;;19.45;8.65;;;;;;;19.46;33.01;101649.63;16120658;19;130094;-45
2022/12/03 22:41:19;;;;;;;16.17;7.95;;;;;;;19.38;32.92;101643.31;16123860;19;129675;-47
2022/12/03 22:46:41;;;;;;;17.77;9.25;;;;;;;19.28;32.53;101636.63;16125383;19;130450;-46
2022/12/03 22:52:03;;;;;;;15.77;9.52;;;;;;;19.16;32.95;101633.78;16120850;19;130139;-43
2022/12/03 22:57:25;;;;;;;17.50;9.65;;;;;;;19.05;32.49;101633.47;16119747;19;129170;-47
2022/12/03 23:02:46;;;;;;;17.05;9.27;;;;;;;18.96;32.27;101643.16;16121390;19;129798;-47
2022/12/03 23:08:11;;;;;;;21.02;9.23;;;;;;;18.86;32.46;101629.84;16118361;19;129191;-46
2022/12/03 23:13:32;;;;;;;13.50;8.43;;;;;;;18.79;32.19;101628.22;16122201;19;129520;-52
2022/12/03 23:18:57;;;;;;;15.45;8.88;;;;;;;18.72;32.08;101620.81;16122404;19;130979;-46
2022/12/03 23:24:18;;;;;;;15.15;8.88;;;;;;;18.67;32.18;101620.69;16120337;19;129422;-49
2022/12/03 23:29:40;;;;;;;14.38;8.55;;;;;;;18.60;32.25;101608.81;16120747;19;129672;-52
2022/12/03 23:35:03;;;;;;;12.93;8.45;;;;;;;18.54;32.26;101604.19;16123633;19;129248;-43
2022/12/03 23:40:25;;;;;;;11.60;7.80;;;;;;;18.50;32.18;101611.25;16120666;19;129581;-43
2022/12/03 23:45:47;;;;;;;12.43;7.85;;;;;;;18.44;32.20;101608.34;16123402;19;129598;-42
2022/12/03 23:51:14;;;;;;;13.18;7.85;;;;;;;18.41;32.37;101600.47;16134014;19;129651;-45
2022/12/03 23:56:36;;;;;;;11.07;8.30;;;;;;;18.34;32.17;101596.88;16137593;19;130199;-44
